Time,TemperatureF,DewpointF,PressureIn,WindDirection,WindDirectionDegrees,WindSpeedMPH,WindSpeedGustMPH,Humidity,HourlyPrecipIn,Conditions,Clouds,dailyrainin,SoftwareType,DateUTC
2013-07-08 00:00:00,81.8,63.0,29.78,SSE,165,0.0,1.0,53,0.00,,,0.00,Wunderground v.1.15,2013-07-08 05:00:00,
2013-07-08 00:10:00,81.5,62.7,29.78,SSE,163,0.0,0.0,53,0.00,,,0.00,Wunderground v.1.15,2013-07-08 05:10:00,
2013-07-08 00:20:00,81.3,63.1,29.78,ESE,119,0.0,0.0,54,0.00,,,0.00,Wunderground v.1.15,2013-07-08 05:20:00,
2013-07-08 00:30:00,81.8,63.0,29.79,SE,128,0.0,1.0,53,0.00,,,0.00,Wunderground v.1.15,2013-07-08 05:30:00,
2013-07-08 00:40:00,81.8,63.0,29.79,ESE,120,1.0,1.0,53,0.00,,,0.00,Wunderground v.1.15,2013-07-08 05:40:00,
2013-07-08 00:50:00,81.6,63.3,29.79,East,91,0.0,1.0,54,0.00,,,0.00,Wunderground v.1.15,2013-07-08 05:50:00,
2013-07-08 01:00:00,81.6,62.8,29.79,SE,143,0.0,1.0,53,0.00,,,0.00,Wunderground v.1.15,2013-07-08 06:00:00,
2013-07-08 01:10:00,81.7,62.9,29.80,WNW,282,1.0,1.0,53,0.00,,,0.00,Wunderground v.1.15,2013-07-08 06:10:00,
2013-07-08 01:20:00,82.4,61.9,29.80,SSE,165,2.0,4.0,50,0.00,,,0.00,Wunderground v.1.15,2013-07-08 06:20:00,
2013-07-08 01:30:00,83.1,62.5,29.79,SW,222,6.0,10.0,50,0.00,,,0.00,Wunderground v.1.15,2013-07-08 06:30:00,
2013-07-08 01:40:00,83.4,62.8,29.79,SSW,194,6.0,6.0,50,0.00,,,0.00,Wunderground v.1.15,2013-07-08 06:40:00,
2013-07-08 01:50:00,83.3,62.7,29.79,SW,228,4.0,8.0,50,0.00,,,0.00,Wunderground v.1.15,2013-07-08 06:50:00,
2013-07-08 02:00:00,83.5,62.3,29.79,SSW,193,5.0,8.0,49,0.00,,,0.00,Wunderground v.1.15,2013-07-08 07:00:00,
2013-07-08 02:10:00,84.0,62.8,29.79,South,190,6.0,6.0,49,0.00,,,0.00,Wunderground v.1.15,2013-07-08 07:10:00,
2013-07-08 02:20:00,84.4,62.0,29.79,SSW,211,8.0,10.0,47,0.00,,,0.00,Wunderground v.1.15,2013-07-08 07:20:00,
2013-07-08 02:30:00,84.9,61.8,29.79,SSW,201,11.0,11.0,46,0.00,,,0.00,Wunderground v.1.15,2013-07-08 07:30:00,
2013-07-08 02:40:00,85.8,60.7,29.80,SSW,200,8.0,8.0,43,0.00,,,0.00,Wunderground v.1.15,2013-07-08 07:40:00,
2013-07-08 02:50:00,86.4,61.3,29.81,WSW,253,8.0,8.0,43,0.00,,,0.00,Wunderground v.1.15,2013-07-08 07:50:00,
2013-07-08 03:00:00,86.7,60.9,29.83,NW,306,4.0,7.0,42,0.00,,,0.00,Wunderground v.1.15,2013-07-08 08:00:00,
2013-07-08 03:10:00,85.1,62.0,29.84,WNW,285,5.0,5.0,46,0.00,,,0.00,Wunderground v.1.15,2013-07-08 08:10:00,
2013-07-08 03:20:00,83.9,62.7,29.83,NNW,345,3.0,4.0,49,0.00,,,0.00,Wunderground v.1.15,2013-07-08 08:20:00,
2013-07-08 03:30:00,82.9,63.5,29.83,SSW,192,2.0,4.0,52,0.00,,,0.00,Wunderground v.1.15,2013-07-08 08:30:00,
2013-07-08 03:40:00,81.8,63.0,29.84,SSW,207,2.0,3.0,53,0.00,,,0.00,Wunderground v.1.15,2013-07-08 08:40:00,
2013-07-08 03:50:00,82.0,62.6,29.84,WSW,239,2.0,5.0,52,0.00,,,0.00,Wunderground v.1.15,2013-07-08 08:50:00,
2013-07-08 04:00:00,81.6,63.3,29.83,South,186,2.0,2.0,54,0.00,,,0.00,Wunderground v.1.15,2013-07-08 09:00:00,
2013-07-08 04:10:00,80.3,64.2,29.83,SSE,158,1.0,2.0,58,0.00,,,0.00,Wunderground v.1.15,2013-07-08 09:10:00,
2013-07-08 04:20:00,79.9,63.8,29.83,West,276,1.0,1.0,58,0.00,,,0.00,Wunderground v.1.15,2013-07-08 09:20:00,
2013-07-08 04:30:00,79.3,64.2,29.83,SSW,208,1.0,1.0,60,0.00,,,0.00,Wunderground v.1.15,2013-07-08 09:30:00,
2013-07-08 04:40:00,78.9,64.3,29.83,SE,143,0.0,0.0,61,0.00,,,0.00,Wunderground v.1.15,2013-07-08 09:40:00,
2013-07-08 04:50:00,78.5,63.9,29.83,SSE,149,1.0,2.0,61,0.00,,,0.00,Wunderground v.1.15,2013-07-08 09:50:00,
2013-07-08 05:00:00,78.4,64.3,29.83,SSE,160,3.0,3.0,62,0.00,,,0.00,Wunderground v.1.15,2013-07-08 10:00:00,
2013-07-08 05:10:00,78.3,64.2,29.83,SSE,155,3.0,3.0,62,0.00,,,0.00,Wunderground v.1.15,2013-07-08 10:10:00,
2013-07-08 05:20:00,78.1,64.5,29.83,SE,132,2.0,2.0,63,0.00,,,0.00,Wunderground v.1.15,2013-07-08 10:20:00,
2013-07-08 05:30:00,78.0,64.8,29.83,SSE,150,3.0,3.0,64,0.00,,,0.00,Wunderground v.1.15,2013-07-08 10:30:00,
2013-07-08 05:40:00,77.5,65.2,29.82,SE,125,3.0,3.0,66,0.00,,,0.00,Wunderground v.1.15,2013-07-08 10:40:00,
2013-07-08 05:50:00,76.5,66.4,29.82,SE,132,4.0,4.0,71,0.00,,,0.00,Wunderground v.1.15,2013-07-08 10:50:00,
2013-07-08 06:00:00,75.8,66.5,29.82,ESE,107,2.0,2.0,73,0.00,,,0.00,Wunderground v.1.15,2013-07-08 11:00:00,
2013-07-08 06:10:00,75.6,66.3,29.82,SE,129,1.0,2.0,73,0.00,,,0.00,Wunderground v.1.15,2013-07-08 11:10:00,
2013-07-08 06:20:00,75.5,66.6,29.82,SSE,152,2.0,2.0,74,0.00,,,0.00,Wunderground v.1.15,2013-07-08 11:20:00,
2013-07-08 06:30:00,75.2,66.3,29.82,SE,127,3.0,3.0,74,0.00,,,0.00,Wunderground v.1.15,2013-07-08 11:30:00,
2013-07-08 06:40:00,74.8,66.7,29.82,SE,141,3.0,3.0,76,0.00,,,0.00,Wunderground v.1.15,2013-07-08 11:40:00,
2013-07-08 06:50:00,74.6,66.5,29.83,SSE,154,4.0,4.0,76,0.00,,,0.00,Wunderground v.1.15,2013-07-08 11:50:00,
2013-07-08 07:00:00,74.6,66.9,29.83,South,181,2.0,2.0,77,0.00,,,0.00,Wunderground v.1.15,2013-07-08 12:00:00,
2013-07-08 07:10:00,74.9,66.1,29.83,SE,136,4.0,4.0,74,0.00,,,0.00,Wunderground v.1.15,2013-07-08 12:10:00,
2013-07-08 07:20:00,75.5,65.8,29.83,East,93,4.0,4.0,72,0.00,,,0.00,Wunderground v.1.15,2013-07-08 12:20:00,
2013-07-08 07:30:00,75.8,66.1,29.81,ESE,113,3.0,3.0,72,0.00,,,0.00,Wunderground v.1.15,2013-07-08 12:30:00,
2013-07-08 07:40:00,75.1,66.6,29.82,SSW,210,3.0,3.0,75,0.00,,,0.00,Wunderground v.1.15,2013-07-08 12:40:00,
2013-07-08 07:50:00,74.7,66.6,29.83,South,175,2.0,2.0,76,0.00,,,0.00,Wunderground v.1.15,2013-07-08 12:50:00,
2013-07-08 08:00:00,74.2,67.3,29.83,SE,128,3.0,3.0,79,0.00,,,0.00,Wunderground v.1.15,2013-07-08 13:00:00,
2013-07-08 08:10:00,73.9,67.0,29.84,SSW,208,2.0,2.0,79,0.00,,,0.00,Wunderground v.1.15,2013-07-08 13:10:00,
2013-07-08 08:20:00,74.1,67.5,29.85,SSW,210,0.0,0.0,80,0.00,,,0.00,Wunderground v.1.15,2013-07-08 13:20:00,
2013-07-08 08:30:00,74.1,67.2,29.84,SSE,159,1.0,4.0,79,0.00,,,0.00,Wunderground v.1.15,2013-07-08 13:30:00,
2013-07-08 08:40:00,75.0,66.9,29.84,SE,128,4.0,4.0,76,0.00,,,0.00,Wunderground v.1.15,2013-07-08 13:40:00,
2013-07-08 08:50:00,75.4,66.9,29.84,South,172,5.0,6.0,75,0.00,,,0.00,Wunderground v.1.15,2013-07-08 13:50:00,
2013-07-08 09:00:00,75.9,67.4,29.84,SSE,158,4.0,4.0,75,0.00,,,0.00,Wunderground v.1.15,2013-07-08 14:00:00,
2013-07-08 09:10:00,77.2,67.5,29.84,SSW,201,5.0,7.0,72,0.00,,,0.00,Wunderground v.1.15,2013-07-08 14:10:00,
2013-07-08 09:20:00,78.8,67.8,29.84,SSE,150,7.0,7.0,69,0.00,,,0.00,Wunderground v.1.15,2013-07-08 14:20:00,
2013-07-08 09:30:00,79.6,66.3,29.84,SSE,148,7.0,8.0,64,0.00,,,0.00,Wunderground v.1.15,2013-07-08 14:30:00,
2013-07-08 09:40:00,79.8,66.5,29.84,SSE,155,8.0,9.0,64,0.00,,,0.00,Wunderground v.1.15,2013-07-08 14:40:00,
2013-07-08 09:50:00,80.2,66.5,29.85,South,172,8.0,13.0,63,0.00,,,0.00,Wunderground v.1.15,2013-07-08 14:50:00,
2013-07-08 10:00:00,81.0,66.3,29.85,South,187,8.0,8.0,61,0.00,,,0.00,Wunderground v.1.15,2013-07-08 15:00:00,
2013-07-08 10:10:00,82.1,65.9,29.85,South,172,11.0,11.0,58,0.00,,,0.00,Wunderground v.1.15,2013-07-08 15:10:00,
2013-07-08 10:20:00,82.7,65.9,29.84,SE,146,12.0,13.0,57,0.00,,,0.00,Wunderground v.1.15,2013-07-08 15:20:00,
2013-07-08 10:30:00,84.3,67.9,29.84,SSW,193,10.0,10.0,58,0.00,,,0.00,Wunderground v.1.15,2013-07-08 15:30:00,
2013-07-08 10:40:00,85.0,67.0,29.84,SSW,200,11.0,11.0,55,0.00,,,0.00,Wunderground v.1.15,2013-07-08 15:40:00,
2013-07-08 10:50:00,86.4,66.1,29.84,SW,215,10.0,10.0,51,0.00,,,0.00,Wunderground v.1.15,2013-07-08 15:50:00,
2013-07-08 11:00:00,87.3,67.0,29.85,West,259,10.0,12.0,51,0.00,,,0.00,Wunderground v.1.15,2013-07-08 16:00:00,
2013-07-08 11:10:00,87.9,65.8,29.84,SW,219,10.0,14.0,48,0.00,,,0.00,Wunderground v.1.15,2013-07-08 16:10:00,
2013-07-08 11:20:00,88.2,66.0,29.84,SSW,210,12.0,12.0,48,0.00,,,0.00,Wunderground v.1.15,2013-07-08 16:20:00,
2013-07-08 11:30:00,89.4,65.9,29.83,SSW,207,10.0,13.0,46,0.00,,,0.00,Wunderground v.1.15,2013-07-08 16:30:00,
2013-07-08 11:40:00,89.2,65.1,29.83,South,172,11.0,16.0,45,0.00,,,0.00,Wunderground v.1.15,2013-07-08 16:40:00,
2013-07-08 11:50:00,89.8,65.6,29.83,SSE,153,10.0,10.0,45,0.00,,,0.00,Wunderground v.1.15,2013-07-08 16:50:00,
2013-07-08 12:00:00,88.9,64.8,29.83,South,180,10.0,15.0,45,0.00,,,0.00,Wunderground v.1.15,2013-07-08 17:00:00,
2013-07-08 12:20:00,91.2,65.6,29.82,SSE,155,8.0,10.0,43,0.00,,,0.00,Wunderground v.1.15,2013-07-08 17:20:00,
2013-07-08 12:30:00,92.2,67.1,29.82,South,171,8.0,13.0,44,0.00,,,0.00,Wunderground v.1.15,2013-07-08 17:30:00,
2013-07-08 12:40:00,92.7,66.2,29.82,SW,232,9.0,9.0,42,0.00,,,0.00,Wunderground v.1.15,2013-07-08 17:40:00,
2013-07-08 13:00:00,92.3,65.9,29.81,SSW,197,9.0,9.0,42,0.00,,,0.00,Wunderground v.1.15,2013-07-08 18:00:00,
2013-07-08 13:20:00,94.5,65.7,29.81,SSW,207,9.0,9.0,39,0.00,,,0.00,Wunderground v.1.15,2013-07-08 18:20:00,
2013-07-08 13:30:00,95.0,65.4,29.80,SSE,167,8.0,8.0,38,0.00,,,0.00,Wunderground v.1.15,2013-07-08 18:30:00,
2013-07-08 13:40:00,95.4,65.8,29.80,South,178,9.0,9.0,38,0.00,,,0.00,Wunderground v.1.15,2013-07-08 18:40:00,
2013-07-08 14:00:00,97.8,65.5,29.79,SSE,155,8.0,8.0,35,0.00,,,0.00,Wunderground v.1.15,2013-07-08 19:00:00,
2013-07-08 14:10:00,98.2,65.0,29.79,SE,131,10.0,10.0,34,0.00,,,0.00,Wunderground v.1.15,2013-07-08 19:10:00,
2013-07-08 14:20:00,98.5,65.3,29.79,SE,128,10.0,10.0,34,0.00,,,0.00,Wunderground v.1.15,2013-07-08 19:20:00,
2013-07-08 14:40:00,99.0,64.0,29.79,SSE,162,11.0,11.0,32,0.00,,,0.00,Wunderground v.1.15,2013-07-08 19:40:00,
2013-07-08 14:50:00,99.1,65.0,29.78,SSE,156,9.0,9.0,33,0.00,,,0.00,Wunderground v.1.15,2013-07-08 19:50:00,
2013-07-08 15:00:00,99.7,65.5,29.78,SE,146,9.0,10.0,33,0.00,,,0.00,Wunderground v.1.15,2013-07-08 20:00:00,
2013-07-08 15:20:00,99.9,64.8,29.76,SE,129,8.0,8.0,32,0.00,,,0.00,Wunderground v.1.15,2013-07-08 20:20:00,
2013-07-08 15:30:00,101.5,63.3,29.75,SE,134,8.0,8.0,29,0.00,,,0.00,Wunderground v.1.15,2013-07-08 20:30:00,
2013-07-08 15:40:00,102.4,62.1,29.76,SSE,149,12.0,15.0,27,0.00,,,0.00,Wunderground v.1.15,2013-07-08 20:40:00,
2013-07-08 15:50:00,101.3,61.1,29.76,South,174,11.0,13.0,27,0.00,,,0.00,Wunderground v.1.15,2013-07-08 20:50:00,
2013-07-08 16:10:00,102.4,59.9,29.75,South,187,13.0,13.0,25,0.00,,,0.00,Wunderground v.1.15,2013-07-08 21:10:00,
2013-07-08 16:40:00,103.1,61.6,29.74,SE,131,12.0,16.0,26,0.00,,,0.00,Wunderground v.1.15,2013-07-08 21:40:00,
2013-07-08 16:50:00,103.3,62.8,29.74,SSW,194,13.0,13.0,27,0.00,,,0.00,Wunderground v.1.15,2013-07-08 21:50:00,
2013-07-08 17:00:00,101.9,61.6,29.74,SSW,212,12.0,12.0,27,0.00,,,0.00,Wunderground v.1.15,2013-07-08 22:00:00,
2013-07-08 17:10:00,102.6,62.2,29.74,South,174,11.0,17.0,27,0.00,,,0.00,Wunderground v.1.15,2013-07-08 22:10:00,
2013-07-08 17:20:00,102.1,61.8,29.74,SSE,163,14.0,20.0,27,0.00,,,0.00,Wunderground v.1.15,2013-07-08 22:20:00,
2013-07-08 17:30:00,102.1,61.8,29.73,South,174,13.0,13.0,27,0.00,,,0.00,Wunderground v.1.15,2013-07-08 22:30:00,
2013-07-08 17:40:00,102.4,61.0,29.73,South,171,12.0,12.0,26,0.00,,,0.00,Wunderground v.1.15,2013-07-08 22:40:00,
2013-07-08 18:00:00,101.9,61.6,29.72,South,174,12.0,14.0,27,0.00,,,0.00,Wunderground v.1.15,2013-07-08 23:00:00,
2013-07-08 18:30:00,101.4,61.2,29.71,SE,140,12.0,18.0,27,0.00,,,0.00,Wunderground v.1.15,2013-07-08 23:30:00,
2013-07-08 18:40:00,100.8,61.7,29.71,SE,127,13.0,13.0,28,0.00,,,0.00,Wunderground v.1.15,2013-07-08 23:40:00,
2013-07-08 19:30:00,99.8,60.9,29.71,SE,141,12.0,14.0,28,0.00,,,0.00,Wunderground v.1.15,2013-07-09 00:30:00,
2013-07-08 20:20:00,97.5,59.9,29.71,ESE,108,10.0,10.0,29,0.00,,,0.00,Wunderground v.1.15,2013-07-09 01:20:00,
2013-07-08 20:30:00,96.8,59.3,29.71,SE,145,8.0,8.0,29,0.00,,,0.00,Wunderground v.1.15,2013-07-09 01:30:00,
2013-07-08 20:40:00,95.8,59.4,29.71,SSE,150,8.0,8.0,30,0.00,,,0.00,Wunderground v.1.15,2013-07-09 01:40:00,
2013-07-08 20:50:00,94.9,59.5,29.72,SE,145,7.0,7.0,31,0.00,,,0.00,Wunderground v.1.15,2013-07-09 01:50:00,
2013-07-08 21:00:00,94.0,59.7,29.72,SE,124,7.0,7.0,32,0.00,,,0.00,Wunderground v.1.15,2013-07-09 02:00:00,
2013-07-08 21:30:00,91.3,59.8,29.72,SE,133,6.0,6.0,35,0.00,,,0.00,Wunderground v.1.15,2013-07-09 02:30:00,
2013-07-08 21:40:00,90.6,60.0,29.73,SE,138,5.0,6.0,36,0.00,,,0.00,Wunderground v.1.15,2013-07-09 02:40:00,
2013-07-08 21:50:00,89.6,60.6,29.73,SSE,148,5.0,6.0,38,0.00,,,0.00,Wunderground v.1.15,2013-07-09 02:50:00,
2013-07-08 22:30:00,87.8,61.2,29.75,SSE,149,4.0,4.0,41,0.00,,,0.00,Wunderground v.1.15,2013-07-09 03:30:00,
2013-07-08 22:40:00,87.3,61.4,29.75,SE,136,4.0,4.0,42,0.00,,,0.00,Wunderground v.1.15,2013-07-09 03:40:00,
2013-07-08 22:50:00,87.1,61.2,29.75,SE,124,5.0,5.0,42,0.00,,,0.00,Wunderground v.1.15,2013-07-09 03:50:00,
2013-07-08 23:10:00,86.8,62.3,29.75,SE,127,6.0,7.0,44,0.00,,,0.00,Wunderground v.1.15,2013-07-09 04:10:00,
2013-07-08 23:20:00,87.0,62.5,29.74,SE,141,7.0,8.0,44,0.00,,,0.00,Wunderground v.1.15,2013-07-09 04:20:00,
2013-07-08 23:30:00,87.5,62.9,29.75,SE,142,8.0,8.0,44,0.00,,,0.00,Wunderground v.1.15,2013-07-09 04:30:00,
2013-07-08 23:40:00,87.7,63.1,29.74,SE,136,8.0,9.0,44,0.00,,,0.00,Wunderground v.1.15,2013-07-09 04:40:00,
2013-07-08 23:50:00,87.6,63.6,29.74,SSW,212,9.0,9.0,45,0.00,,,0.00,Wunderground v.1.15,2013-07-09 04:50:00,